createdAt,value
2022-10-19T00:01:17.692Z,6.99
2022-10-19T00:06:25.560Z,6.91
2022-10-19T00:08:54.692Z,6.89
2022-10-19T00:11:23.709Z,6.76
2022-10-19T00:13:53.020Z,6.79
2022-10-19T00:16:22.627Z,6.81
2022-10-19T00:18:51.385Z,6.71
2022-10-19T00:21:21.492Z,6.68
2022-10-19T00:23:50.602Z,6.72
2022-10-19T00:26:18.791Z,6.66
2022-10-19T00:28:47.144Z,6.62
2022-10-19T00:31:18.343Z,6.62
2022-10-19T00:33:47.734Z,6.52
2022-10-19T00:36:19.508Z,6.53
2022-10-19T00:38:49.245Z,6.48
2022-10-19T00:41:19.053Z,6.40
2022-10-19T00:43:59.230Z,6.41
2022-10-19T00:46:29.691Z,6.44
2022-10-19T00:49:01.731Z,6.45
2022-10-19T00:51:32.893Z,6.39
2022-10-19T00:54:04.426Z,6.35
2022-10-19T00:56:33.859Z,6.31
2022-10-19T00:59:04.550Z,6.36
2022-10-19T01:01:34.737Z,6.37
2022-10-19T01:04:04.424Z,6.32
2022-10-19T01:06:33.081Z,6.32
2022-10-19T01:09:02.618Z,6.32
2022-10-19T01:11:44.160Z,6.31
2022-10-19T01:14:27.570Z,6.24
2022-10-19T01:17:06.745Z,6.22
2022-10-19T01:19:54.711Z,6.22
2022-10-19T01:22:39.608Z,6.15
2022-10-19T01:25:23.465Z,6.22
2022-10-19T01:28:10.727Z,6.23
2022-10-19T01:30:50.880Z,6.20
2022-10-19T01:33:34.154Z,6.21
2022-10-19T01:36:12.560Z,6.20
2022-10-19T01:38:49.529Z,6.19
2022-10-19T01:41:21.833Z,6.16
2022-10-19T01:43:56.613Z,6.16
2022-10-19T01:46:31.629Z,6.09
2022-10-19T01:49:06.211Z,6.10
2022-10-19T01:51:37.334Z,6.07
2022-10-19T01:54:10.753Z,6.09
2022-10-19T01:56:42.478Z,6.06
2022-10-19T01:59:13.079Z,6.00
2022-10-19T02:01:46.360Z,5.95
2022-10-19T02:04:18.280Z,5.94
2022-10-19T02:06:46.967Z,6.02
2022-10-19T02:09:18.320Z,5.97
2022-10-19T02:11:50.394Z,5.98
2022-10-19T02:14:24.026Z,5.96
2022-10-19T02:16:58.720Z,5.99
2022-10-19T02:19:26.980Z,6.00
2022-10-19T02:21:55.882Z,5.96
2022-10-19T02:24:24.081Z,5.97
2022-10-19T02:26:53.160Z,5.93
2022-10-19T02:29:21.612Z,5.85
2022-10-19T02:31:50.025Z,5.80
2022-10-19T02:34:20.339Z,5.78
2022-10-19T02:36:48.485Z,5.80
2022-10-19T02:39:16.876Z,5.78
2022-10-19T02:41:50.572Z,5.80
2022-10-19T02:44:25.543Z,5.72
2022-10-19T02:46:57.425Z,5.69
2022-10-19T02:49:28.160Z,5.66
2022-10-19T02:51:59.282Z,5.69
2022-10-19T02:54:28.585Z,5.73
2022-10-19T02:56:57.187Z,5.70
2022-10-19T02:59:26.238Z,5.71
2022-10-19T03:01:54.362Z,5.68
2022-10-19T03:04:22.485Z,5.72
2022-10-19T03:06:51.973Z,5.72
2022-10-19T03:09:20.241Z,5.75
2022-10-19T03:11:48.289Z,5.72
2022-10-19T03:14:16.434Z,5.59
2022-10-19T03:16:44.622Z,5.62
2022-10-19T03:19:12.773Z,5.53
2022-10-19T03:21:40.914Z,5.43
2022-10-19T03:24:10.794Z,5.33
2022-10-19T03:26:38.799Z,5.36
2022-10-19T03:29:06.911Z,5.27
2022-10-19T03:31:35.044Z,5.21
2022-10-19T03:34:03.230Z,5.15
2022-10-19T03:36:33.226Z,5.11
2022-10-19T03:39:03.365Z,5.05
2022-10-19T03:41:35.116Z,5.07
2022-10-19T03:44:03.588Z,5.03
2022-10-19T03:46:31.765Z,5.02
2022-10-19T03:49:00.028Z,5.02
2022-10-19T03:51:29.407Z,5.01
2022-10-19T03:54:00.636Z,5.03
2022-10-19T03:56:31.519Z,5.14
2022-10-19T03:59:02.332Z,5.06
2022-10-19T04:01:33.844Z,5.03
2022-10-19T04:04:04.211Z,5.10
2022-10-19T04:06:34.441Z,5.13
2022-10-19T04:09:03.414Z,5.12
2022-10-19T04:11:33.443Z,5.10
2022-10-19T04:14:03.420Z,5.15
2022-10-19T04:16:32.732Z,5.04
2022-10-19T04:19:01.616Z,5.00
2022-10-19T04:21:31.862Z,4.90
2022-10-19T04:24:02.707Z,4.86
2022-10-19T04:26:31.123Z,4.77
2022-10-19T04:28:59.592Z,4.75
2022-10-19T04:31:30.299Z,4.76
2022-10-19T04:33:58.861Z,4.78
2022-10-19T04:36:26.956Z,4.77
2022-10-19T04:38:55.161Z,4.85
2022-10-19T04:41:24.365Z,4.98
2022-10-19T04:56:28.109Z,5.29
2022-10-19T04:58:58.016Z,5.38
2022-10-19T05:01:27.484Z,5.41
2022-10-19T05:03:59.538Z,5.42
2022-10-19T05:06:28.342Z,5.37
2022-10-19T05:08:57.006Z,5.43
2022-10-19T05:11:27.548Z,5.45
2022-10-19T05:13:57.220Z,5.50
2022-10-19T05:16:26.086Z,5.63
2022-10-19T05:18:58.925Z,5.64
2022-10-19T05:21:28.994Z,5.73
2022-10-19T05:23:59.003Z,5.81
2022-10-19T05:26:30.277Z,5.84
2022-10-19T05:29:01.966Z,5.80
2022-10-19T05:31:33.018Z,5.92
2022-10-19T05:34:03.195Z,5.89
2022-10-19T05:36:34.830Z,5.96
2022-10-19T05:39:06.058Z,6.02
2022-10-19T05:41:36.271Z,6.05
2022-10-19T05:44:05.779Z,6.13
2022-10-19T05:46:34.922Z,6.30
2022-10-19T05:49:03.046Z,6.32
2022-10-19T05:51:31.137Z,6.42
2022-10-19T05:53:59.557Z,6.50
2022-10-19T05:56:30.240Z,6.59
2022-10-19T05:59:01.798Z,6.60
2022-10-19T06:01:31.324Z,6.65
2022-10-19T06:04:01.099Z,6.66
2022-10-19T06:06:29.890Z,6.68
2022-10-19T06:08:59.701Z,6.78
2022-10-19T06:11:29.314Z,6.90
2022-10-19T06:14:00.936Z,7.00
2022-10-19T06:16:30.744Z,7.04
2022-10-19T06:19:00.586Z,7.06
2022-10-19T06:21:30.864Z,7.04
2022-10-19T06:24:00.930Z,7.09
2022-10-19T06:26:30.290Z,7.15
2022-10-19T06:29:02.455Z,7.17
2022-10-19T06:31:31.574Z,7.31
2022-10-19T06:34:00.150Z,7.52
2022-10-19T06:36:30.004Z,7.64
2022-10-19T06:38:59.809Z,7.75
2022-10-19T06:41:28.546Z,7.76
2022-10-19T06:43:59.931Z,7.82
2022-10-19T06:46:29.885Z,7.91
2022-10-19T06:49:03.271Z,8.06
2022-10-19T06:51:34.115Z,8.30
2022-10-19T06:54:02.580Z,8.34
2022-10-19T06:56:30.848Z,8.40
2022-10-19T17:02:23.417Z,15.35
2022-10-19T17:04:51.722Z,15.35
2022-10-19T17:07:20.586Z,15.35
2022-10-19T17:09:52.159Z,15.33
2022-10-19T17:12:23.953Z,15.38
2022-10-19T17:14:52.520Z,15.37
2022-10-19T17:17:22.028Z,15.37
2022-10-19T17:19:50.122Z,15.33
2022-10-19T17:22:18.310Z,15.28
2022-10-19T17:24:47.523Z,15.22
2022-10-19T17:27:17.968Z,15.20
2022-10-19T17:29:46.643Z,15.12
2022-10-19T17:32:14.897Z,15.00
2022-10-19T17:34:44.368Z,14.92
2022-10-19T17:37:12.598Z,14.88
2022-10-19T17:39:40.771Z,15.09
2022-10-19T17:42:09.046Z,14.87
2022-10-19T17:44:37.386Z,14.76
2022-10-19T17:47:05.532Z,14.60
2022-10-19T17:49:33.665Z,14.51
2022-10-19T17:52:03.693Z,14.44
2022-10-19T17:54:39.624Z,14.42
2022-10-19T17:57:20.049Z,14.31
2022-10-19T17:59:52.971Z,14.21
2022-10-19T18:02:22.237Z,14.13
2022-10-19T18:04:50.670Z,14.06
2022-10-19T18:07:22.329Z,14.03
2022-10-19T18:09:50.512Z,14.08
2022-10-19T18:12:18.833Z,14.03
2022-10-19T18:14:47.123Z,13.97
2022-10-19T18:17:15.351Z,13.90
2022-10-19T18:19:43.823Z,13.86
2022-10-19T18:22:12.353Z,13.85
2022-10-19T18:24:42.002Z,13.83
2022-10-19T18:27:13.110Z,13.80
2022-10-19T18:29:41.719Z,13.73
2022-10-19T18:32:09.870Z,13.72
2022-10-19T18:34:38.096Z,13.74
2022-10-19T18:37:07.288Z,13.72
2022-10-19T18:39:35.500Z,13.74
2022-10-19T18:42:05.367Z,13.79
2022-10-19T18:44:33.893Z,13.76
2022-10-19T18:47:02.139Z,13.71
2022-10-19T18:49:30.519Z,13.68
2022-10-19T18:51:59.070Z,13.81
2022-10-19T18:54:28.120Z,13.90
2022-10-19T18:56:56.964Z,13.99
2022-10-19T19:01:56.088Z,14.03
2022-10-19T19:04:24.543Z,14.05
2022-10-19T19:06:54.015Z,14.17
2022-10-19T19:09:22.332Z,14.18
2022-10-19T19:11:51.562Z,14.09
2022-10-19T19:14:22.165Z,14.02
2022-10-19T19:16:51.888Z,14.17
2022-10-19T19:19:20.737Z,14.36
2022-10-19T19:21:49.914Z,14.44
2022-10-19T19:24:19.989Z,14.64
2022-10-19T19:26:50.161Z,14.70
2022-10-19T19:29:19.290Z,14.86
2022-10-19T19:31:49.674Z,14.92
2022-10-19T19:34:19.726Z,14.95
2022-10-19T19:36:48.804Z,15.11
2022-10-19T19:39:18.786Z,15.25
2022-10-19T19:41:47.274Z,15.39
2022-10-19T19:44:15.410Z,15.40
2022-10-19T19:46:44.146Z,15.34
2022-10-19T19:49:12.343Z,15.45
2022-10-19T19:51:42.260Z,15.49
2022-10-19T19:54:12.248Z,15.50
2022-10-19T19:56:42.431Z,15.50
2022-10-19T19:59:11.638Z,15.47
2022-10-19T20:01:40.427Z,15.46
2022-10-19T20:04:08.829Z,15.46
2022-10-19T20:06:39.106Z,15.36
2022-10-19T20:09:10.791Z,15.34
2022-10-19T20:11:42.449Z,15.26
2022-10-19T20:14:11.448Z,15.20
2022-10-19T20:16:39.551Z,15.20
2022-10-19T20:19:12.294Z,15.16
2022-10-19T20:21:42.347Z,15.13
2022-10-19T20:24:14.511Z,15.06
2022-10-19T20:26:42.741Z,15.07
2022-10-19T20:29:11.986Z,15.05
2022-10-19T20:31:41.395Z,15.08
2022-10-19T20:34:12.293Z,15.11
2022-10-19T20:36:41.492Z,15.11
2022-10-19T20:39:11.717Z,15.10
2022-10-19T20:41:39.816Z,15.12
2022-10-19T20:44:08.040Z,15.14
2022-10-19T20:46:37.277Z,15.14
2022-10-19T20:49:09.125Z,15.13
2022-10-19T20:51:38.066Z,15.14
2022-10-19T20:54:08.413Z,15.18
2022-10-19T20:56:40.107Z,15.24
2022-10-19T20:59:10.916Z,15.25
2022-10-19T21:01:40.878Z,15.25
2022-10-19T21:04:11.602Z,15.30
2022-10-19T21:06:42.090Z,15.33
2022-10-19T21:09:11.235Z,15.39
2022-10-19T21:11:42.096Z,15.39
2022-10-19T21:14:13.638Z,15.39
2022-10-19T21:16:42.344Z,15.44
2022-10-19T21:19:13.849Z,15.38
2022-10-19T21:21:44.549Z,15.42
2022-10-19T21:24:15.394Z,15.38
2022-10-19T21:26:45.404Z,15.39
2022-10-19T21:29:15.241Z,15.40
2022-10-19T21:31:47.999Z,15.37
2022-10-19T21:34:20.514Z,15.32
2022-10-19T21:36:49.266Z,15.33
2022-10-19T21:39:17.540Z,15.29
2022-10-19T21:41:47.977Z,15.27
2022-10-19T21:44:17.643Z,15.22
2022-10-19T21:46:48.102Z,15.13
2022-10-19T21:49:16.467Z,15.08
2022-10-19T21:51:47.535Z,15.00
2022-10-19T21:54:17.893Z,15.02
2022-10-19T21:56:48.053Z,14.95
2022-10-19T21:59:17.084Z,14.92
2022-10-19T22:01:45.749Z,15.01
2022-10-19T22:04:16.197Z,15.01
2022-10-19T22:06:44.663Z,14.93
2022-10-19T22:09:15.925Z,14.93
2022-10-19T22:11:44.561Z,15.01
2022-10-19T22:14:16.418Z,14.94
2022-10-19T22:16:45.137Z,14.84
2022-10-19T22:19:13.697Z,14.88
2022-10-19T22:21:42.423Z,14.88
2022-10-19T22:24:14.081Z,14.88
2022-10-19T22:26:44.462Z,14.85
2022-10-19T22:29:12.555Z,14.85
2022-10-19T22:31:42.149Z,14.84
2022-10-19T22:34:13.411Z,14.82
2022-10-19T22:36:41.651Z,14.81
2022-10-19T22:39:10.076Z,14.70
2022-10-19T22:41:38.216Z,14.67
2022-10-19T22:44:06.451Z,14.72
2022-10-19T22:46:34.614Z,14.74
2022-10-19T22:49:04.350Z,14.70
2022-10-19T22:51:32.536Z,14.77
2022-10-19T22:54:00.687Z,14.75
2022-10-19T22:56:28.876Z,14.78
2022-10-19T22:58:59.773Z,14.84
2022-10-19T23:01:28.991Z,14.85
2022-10-19T23:03:57.185Z,14.94
2022-10-19T23:06:26.803Z,14.94
2022-10-19T23:08:55.384Z,14.99
2022-10-19T23:11:23.998Z,14.98
2022-10-19T23:13:52.103Z,15.03
2022-10-19T23:16:20.234Z,15.02
2022-10-19T23:18:48.325Z,15.09
2022-10-19T23:21:16.702Z,15.07
2022-10-19T23:23:46.314Z,15.04
2022-10-19T23:26:17.957Z,15.09
2022-10-19T23:28:48.147Z,15.00
2022-10-19T23:31:18.425Z,14.98
2022-10-19T23:33:47.496Z,14.97
2022-10-19T23:36:17.671Z,15.03
2022-10-19T23:38:48.810Z,15.01
2022-10-19T23:41:17.249Z,14.95
2022-10-19T23:43:47.840Z,14.99
2022-10-19T23:46:16.417Z,14.98
2022-10-19T23:48:44.715Z,14.97
2022-10-19T23:51:14.707Z,14.93
2022-10-19T23:53:45.471Z,14.87
2022-10-19T23:56:16.891Z,14.91
2022-10-19T23:58:45.635Z,14.89
